KMER/MER METAR and TAF weather

Enter ICAO airport designator
Station Type Date Time Source
KMER METAR 2024/04/15 00:53 UTC NOAA

KMER 150053Z 00000KT 10SM BKN030 16/07 A3010


Station Type Date Time Source
KMER Decoded METAR 2024/04/15 00:53 UTC NOAA

Merced / Castle Air Force Base, CA, United States (KMER) 37-22N 120-34W 60M
Apr 14, 2024 - 08:53 PM EDT / 2024.04.15 0053 UTC
Wind: Calm:0
Visibility: 10 mile(s):0
Sky conditions: mostly cloudy
Temperature: 60 F (16 C)
Dew Point: 44 F (7 C)
Relative Humidity: 55%
Pressure (altimeter): 30.1 in. Hg (1019 hPa)
ob: KMER 150053Z 00000KT 10SM BKN030 16/07 A3010
cycle: 1

Station Type Date Time Source
KMER TAF 2024/04/15 08:13 UTC NOAA